Time;durP1;ratioP1;P1;durP2;ratioP2;P2;SDS_P1;SDS_P2;PMS_P1;PMS_P2;Temp;Humidity;BMP_temperature;BMP_pressure;BME280_temperature;BME280_humidity;BME280_pressure;Samples;Min_cycle;Max_cycle;Signal;HPM_P1;HPM_P2
2022/06/04 00:01:12;;;;;;;3.93;2.30;;;22.60;80.80;;;;;;4938365;29;20194;-93
2022/06/04 00:03:39;;;;;;;3.97;2.80;;;22.60;80.50;;;;;;4938241;29;20189;-93
2022/06/04 00:06:05;;;;;;;7.23;3.00;;;22.70;80.30;;;;;;4938204;28;20207;-93
2022/06/04 00:08:33;;;;;;;6.43;2.70;;;22.50;81.20;;;;;;4938851;28;20640;-93
2022/06/04 00:16:28;;;;;;;5.63;2.60;;;22.60;80.20;;;;;;4955452;28;20214;-93
2022/06/04 00:18:54;;;;;;;3.07;2.47;;;22.50;81.10;;;;;;4953990;28;20175;-93
2022/06/04 00:21:21;;;;;;;3.90;2.67;;;22.50;81.30;;;;;;4954003;28;20274;-93
2022/06/04 00:23:46;;;;;;;3.20;2.23;;;22.50;81.10;;;;;;4953976;28;20187;-93
2022/06/04 00:26:15;;;;;;;4.13;1.93;;;22.40;81.50;;;;;;4957123;28;20253;-91
2022/06/04 00:28:41;;;;;;;4.40;2.37;;;22.40;81.60;;;;;;4957373;28;20664;-93
2022/06/04 00:31:08;;;;;;;3.83;2.07;;;22.40;81.40;;;;;;4957329;28;20233;-93
2022/06/04 00:33:34;;;;;;;8.80;2.33;;;22.50;80.40;;;;;;4956920;28;20174;-93
2022/06/04 00:36:00;;;;;;;3.87;2.03;;;22.60;80.30;;;;;;4955461;28;20196;-92
2022/06/04 00:38:30;;;;;;;6.17;2.50;;;22.50;80.90;;;;;;4957450;28;20225;-94
2022/06/04 00:41:21;;;;;;;3.80;2.20;;;22.40;81.90;;;;;;4957587;28;20195;-93
2022/06/04 00:44:24;;;;;;;2.33;2.10;;;22.30;81.60;;;;;;4957498;28;20190;-93
2022/06/04 00:47:09;;;;;;;2.57;1.87;;;22.30;81.30;;;;;;4942742;28;20209;-93
2022/06/04 00:49:35;;;;;;;5.93;2.13;;;22.40;80.70;;;;;;4942057;29;20246;-92
2022/06/04 00:52:02;;;;;;;2.10;1.90;;;22.30;80.90;;;;;;4942124;29;20186;-93
2022/06/04 00:54:28;;;;;;;5.37;2.20;;;22.20;80.90;;;;;;4941845;29;20190;-93
2022/06/04 00:57:26;;;;;;;2.33;2.10;;;22.40;80.70;;;;;;4956792;28;20222;-93
2022/06/04 01:00:13;;;;;;;2.90;1.87;;;22.30;80.80;;;;;;4925561;28;20186;-92
2022/06/04 01:03:09;;;;;;;4.27;2.20;;;22.40;80.40;;;;;;4960450;28;20186;-93
2022/06/04 01:05:35;;;;;;;3.33;2.13;;;22.30;81.10;;;;;;4955801;29;20568;-93
2022/06/04 01:08:26;;;;;;;4.53;1.93;;;22.30;80.60;;;;;;4941786;29;20183;-92
2022/06/04 01:11:05;;;;;;;2.73;2.10;;;22.40;80.70;;;;;;4942891;29;20187;-92
2022/06/04 01:13:38;;;;;;;2.87;2.03;;;22.20;81.10;;;;;;4943384;29;20548;-93
2022/06/04 01:16:27;;;;;;;4.57;1.70;;;22.20;81.10;;;;;;4954165;28;20202;-93
2022/06/04 01:19:03;;;;;;;4.40;2.13;;;22.20;81.20;;;;;;4961837;28;20186;-93
2022/06/04 01:21:47;;;;;;;4.63;2.10;;;22.10;81.00;;;;;;4962507;28;20182;-92
2022/06/04 01:24:43;;;;;;;2.80;1.80;;;22.00;81.70;;;;;;4944109;29;20207;-93
2022/06/04 01:27:15;;;;;;;3.37;1.90;;;22.10;81.50;;;;;;4977547;28;20207;-92
2022/06/04 01:29:51;;;;;;;3.63;2.07;;;22.10;81.40;;;;;;4961233;28;20710;-92
2022/06/04 01:32:30;;;;;;;2.40;2.10;;;22.10;81.10;;;;;;4960538;28;20197;-92
2022/06/04 01:35:05;;;;;;;4.93;1.97;;;22.00;80.60;;;;;;4955918;29;20186;-93
2022/06/04 01:37:39;;;;;;;3.37;1.90;;;22.10;81.00;;;;;;4940968;29;20294;-92
2022/06/04 01:42:59;;;;;;;3.73;1.67;;;22.00;80.50;;;;;;4958079;28;20187;-93
2022/06/04 01:45:27;;;;;;;5.50;1.93;;;21.90;80.90;;;;;;4941327;29;20215;-93
2022/06/04 01:47:57;;;;;;;3.50;2.07;;;22.00;80.90;;;;;;4940633;29;20542;-93
2022/06/04 01:50:32;;;;;;;3.57;2.00;;;22.00;80.20;;;;;;4940800;29;20655;-93
2022/06/04 01:53:00;;;;;;;4.17;1.93;;;21.90;80.60;;;;;;4954859;28;20232;-92
2022/06/04 01:55:36;;;;;;;8.07;2.10;;;22.00;80.00;;;;;;4953947;29;20184;-93
2022/06/04 01:58:09;;;;;;;3.73;2.00;;;21.80;80.40;;;;;;4941598;29;20203;-93
2022/06/04 02:00:44;;;;;;;4.17;2.30;;;21.70;80.80;;;;;;4941365;29;20195;-92
2022/06/04 02:03:13;;;;;;;2.87;2.10;;;21.80;80.30;;;;;;4944175;29;20183;-92
2022/06/04 02:05:53;;;;;;;4.20;2.20;;;21.80;79.70;;;;;;4943656;29;20680;-93
2022/06/04 02:08:31;;;;;;;4.97;2.47;;;21.90;79.50;;;;;;4940386;29;20175;-92
2022/06/04 02:11:03;;;;;;;6.57;2.27;;;21.80;79.40;;;;;;4939947;28;20696;-93
2022/06/04 02:13:29;;;;;;;4.63;1.80;;;21.60;80.10;;;;;;4940461;29;20326;-93
2022/06/04 02:16:22;;;;;;;6.37;2.17;;;21.50;80.00;;;;;;4949871;28;20178;-92
2022/06/04 02:18:49;;;;;;;2.30;2.07;;;21.60;79.30;;;;;;4940987;29;20211;-92
2022/06/04 02:21:17;;;;;;;5.87;2.40;;;21.50;80.00;;;;;;4940217;29;20640;-92
2022/06/04 02:23:43;;;;;;;4.50;2.03;;;21.50;79.80;;;;;;4940527;28;20182;-92
2022/06/04 02:26:12;;;;;;;2.77;2.03;;;21.40;79.60;;;;;;4956578;29;20155;-92
2022/06/04 02:28:38;;;;;;;3.73;2.07;;;21.50;79.80;;;;;;4960578;29;20187;-93
2022/06/04 02:31:22;;;;;;;2.00;1.80;;;21.40;80.00;;;;;;4961401;28;20278;-92
2022/06/04 02:34:07;;;;;;;2.93;2.00;;;21.40;80.20;;;;;;4960031;28;20182;-93
2022/06/04 02:36:55;;;;;;;5.53;2.13;;;21.50;80.50;;;;;;4942287;29;20187;-90
2022/06/04 02:39:32;;;;;;;4.00;2.23;;;21.50;79.60;;;;;;4902641;29;20215;-92
2022/06/04 02:42:13;;;;;;;2.77;1.97;;;21.40;79.80;;;;;;4939808;29;20192;-92
2022/06/04 02:44:51;;;;;;;3.13;2.00;;;21.30;80.40;;;;;;4940979;28;20226;-92
2022/06/04 02:47:33;;;;;;;5.23;2.00;;;21.20;80.20;;;;;;4959009;28;20208;-92
2022/06/04 02:50:09;;;;;;;5.97;2.00;;;21.10;80.40;;;;;;4958871;28;20178;-93
2022/06/04 02:52:36;;;;;;;3.43;2.20;;;21.10;80.20;;;;;;4958790;28;20241;-92
2022/06/04 02:55:12;;;;;;;2.20;1.80;;;21.00;80.60;;;;;;4958645;28;20646;-92
2022/06/04 02:57:42;;;;;;;3.43;2.00;;;20.90;81.10;;;;;;4958925;28;20178;-93
2022/06/04 03:00:12;;;;;;;4.20;2.00;;;20.90;81.10;;;;;;4958488;28;20194;-92
2022/06/04 03:02:38;;;;;;;3.97;2.30;;;20.80;80.90;;;;;;4958758;28;20185;-92
2022/06/04 03:05:15;;;;;;;3.67;2.10;;;20.90;80.70;;;;;;4953739;28;20547;-92
2022/06/04 03:07:47;;;;;;;3.90;1.90;;;20.80;80.90;;;;;;4939760;29;20175;-92
2022/06/04 03:10:17;;;;;;;3.80;2.13;;;20.80;81.20;;;;;;4938625;29;20186;-91
2022/06/04 03:12:42;;;;;;;4.63;2.10;;;20.70;81.50;;;;;;4939494;29;20207;-92
2022/06/04 03:15:10;;;;;;;3.50;2.10;;;20.70;81.50;;;;;;4941393;28;20195;-92
2022/06/04 03:17:37;;;;;;;3.83;2.37;;;20.70;81.70;;;;;;4958601;28;20188;-92
2022/06/04 03:20:04;;;;;;;3.77;2.43;;;20.80;81.30;;;;;;4958340;28;20186;-92
2022/06/04 03:22:29;;;;;;;3.70;2.17;;;20.80;80.70;;;;;;4958394;28;20185;-92
2022/06/04 03:24:55;;;;;;;5.40;2.47;;;20.70;81.50;;;;;;4957613;28;20233;-92
2022/06/04 03:27:21;;;;;;;7.43;2.20;;;20.60;81.40;;;;;;4957647;28;20193;-91
2022/06/04 03:29:47;;;;;;;2.90;1.90;;;20.50;81.30;;;;;;4958734;28;20198;-92
2022/06/04 03:32:13;;;;;;;3.53;1.97;;;20.60;81.00;;;;;;4958504;28;20277;-92
2022/06/04 03:34:38;;;;;;;3.60;2.13;;;20.40;81.40;;;;;;4958473;28;20181;-92
2022/06/04 03:37:04;;;;;;;4.57;2.20;;;20.30;81.10;;;;;;4942189;29;20178;-90
2022/06/04 03:39:30;;;;;;;3.03;2.00;;;20.30;81.20;;;;;;4939019;29;20207;-91
2022/06/04 03:41:55;;;;;;;3.47;1.87;;;20.30;81.20;;;;;;4938899;29;20208;-92
2022/06/04 03:44:21;;;;;;;6.50;2.27;;;20.40;81.80;;;;;;4939040;29;20210;-92
2022/06/04 03:46:47;;;;;;;3.83;2.00;;;20.40;81.00;;;;;;4951798;28;20719;-92
2022/06/04 03:49:12;;;;;;;3.63;1.97;;;20.20;81.50;;;;;;4958328;28;20203;-91
2022/06/04 03:51:39;;;;;;;4.17;2.10;;;20.20;81.70;;;;;;4958007;28;20672;-93
2022/06/04 03:54:06;;;;;;;4.70;2.40;;;20.20;81.60;;;;;;4957994;28;20192;-93
2022/06/04 03:56:32;;;;;;;4.07;2.00;;;20.20;81.50;;;;;;4948268;28;20545;-93
2022/06/04 03:58:57;;;;;;;3.30;1.83;;;20.20;81.40;;;;;;4957801;28;20181;-93
2022/06/04 04:01:27;;;;;;;5.10;2.20;;;20.20;81.60;;;;;;4957553;28;20274;-93
2022/06/04 04:03:53;;;;;;;3.23;2.10;;;20.10;81.80;;;;;;4957597;28;20552;-93
2022/06/04 04:06:23;;;;;;;3.47;1.83;;;20.10;81.90;;;;;;4949908;29;20185;-95
2022/06/04 04:08:49;;;;;;;3.87;2.03;;;20.00;81.60;;;;;;4937912;28;20180;-92
2022/06/04 04:11:17;;;;;;;2.40;1.77;;;19.90;81.80;;;;;;4938107;29;20220;-93
2022/06/04 04:13:44;;;;;;;4.20;1.93;;;19.90;81.90;;;;;;4938415;29;20630;-93
2022/06/04 04:16:12;;;;;;;2.30;2.10;;;19.90;81.70;;;;;;4943591;28;20276;-92
2022/06/04 04:18:38;;;;;;;3.00;2.17;;;20.00;81.20;;;;;;4956708;28;20188;-93
2022/06/04 04:21:10;;;;;;;4.30;2.20;;;20.00;81.00;;;;;;4957309;28;20169;-93
2022/06/04 04:23:37;;;;;;;3.67;2.13;;;20.00;81.00;;;;;;4956968;28;20194;-93
2022/06/04 04:26:04;;;;;;;3.47;1.87;;;19.90;80.90;;;;;;4952375;29;20304;-92
2022/06/04 04:28:31;;;;;;;4.63;2.13;;;19.90;81.00;;;;;;4938032;29;20189;-93
2022/06/04 04:30:57;;;;;;;2.30;1.90;;;20.00;80.70;;;;;;4937829;29;20228;-93
2022/06/04 04:33:24;;;;;;;4.03;1.80;;;19.90;81.10;;;;;;4938226;29;20189;-91
2022/06/04 04:35:49;;;;;;;2.40;1.90;;;20.00;81.00;;;;;;4939746;28;20727;-93
2022/06/04 04:38:21;;;;;;;2.77;2.30;;;20.00;80.90;;;;;;4957583;28;20216;-93
2022/06/04 04:40:47;;;;;;;5.43;2.60;;;20.00;80.60;;;;;;4956490;28;20293;-93
2022/06/04 04:43:14;;;;;;;4.30;2.17;;;19.80;81.20;;;;;;4957369;28;20207;-93
2022/06/04 04:45:42;;;;;;;6.63;2.37;;;19.80;80.40;;;;;;4954423;28;20208;-93
2022/06/04 04:48:09;;;;;;;6.43;2.80;;;19.90;80.60;;;;;;4957017;28;20191;-93
2022/06/04 04:50:38;;;;;;;5.10;2.10;;;19.90;80.90;;;;;;4956974;28;20958;-92
2022/06/04 04:53:07;;;;;;;3.63;1.90;;;19.80;81.20;;;;;;4957220;28;20341;-93
2022/06/04 04:55:33;;;;;;;3.90;2.53;;;19.90;81.00;;;;;;4956925;28;20186;-92
2022/06/04 04:57:59;;;;;;;2.37;1.93;;;19.80;81.20;;;;;;4938502;29;20639;-93
2022/06/04 05:00:25;;;;;;;2.87;2.33;;;19.80;81.00;;;;;;4938055;29;20196;-93
2022/06/04 05:02:51;;;;;;;5.93;2.53;;;19.70;81.00;;;;;;4937797;29;20261;-93
2022/06/04 05:05:17;;;;;;;4.80;2.37;;;19.80;81.20;;;;;;4937903;29;20700;-92
2022/06/04 05:07:44;;;;;;;2.43;2.03;;;19.90;80.80;;;;;;4952526;28;20181;-93
2022/06/04 05:10:11;;;;;;;2.80;2.07;;;20.00;80.60;;;;;;4956735;28;20215;-93
2022/06/04 05:12:36;;;;;;;4.37;2.20;;;20.00;80.10;;;;;;4956485;28;20638;-93
2022/06/04 05:15:04;;;;;;;2.30;1.93;;;20.00;80.40;;;;;;4957112;28;20280;-92
2022/06/04 05:17:29;;;;;;;5.43;2.67;;;20.00;80.20;;;;;;4943371;28;20188;-92
2022/06/04 05:19:55;;;;;;;3.93;2.10;;;20.00;80.40;;;;;;4937704;29;20179;-92
2022/06/04 05:22:21;;;;;;;2.47;2.00;;;20.00;81.00;;;;;;4954917;29;20179;-93
2022/06/04 05:24:47;;;;;;;3.50;2.07;;;19.90;82.20;;;;;;4937738;28;20221;-93
2022/06/04 05:27:14;;;;;;;3.93;2.33;;;20.00;81.50;;;;;;4948170;28;20192;-93
2022/06/04 05:29:39;;;;;;;6.07;2.60;;;20.00;81.40;;;;;;4957346;28;20189;-95
2022/06/04 05:32:07;;;;;;;4.80;2.10;;;20.00;81.40;;;;;;4957448;28;20200;-93
2022/06/04 05:34:33;;;;;;;3.57;2.50;;;20.10;81.20;;;;;;4959937;28;20188;-94
2022/06/04 05:36:59;;;;;;;4.27;2.57;;;20.10;81.00;;;;;;4959801;28;20206;-94
2022/06/04 05:39:25;;;;;;;5.40;2.40;;;20.00;80.60;;;;;;4960174;28;20188;-93
2022/06/04 05:41:51;;;;;;;4.13;2.83;;;20.00;81.10;;;;;;4960135;28;20652;-93
2022/06/04 05:44:18;;;;;;;2.97;2.60;;;19.90;81.00;;;;;;4959371;28;20205;-93
2022/06/04 05:46:45;;;;;;;4.20;2.47;;;20.00;81.10;;;;;;4951066;29;20183;-93
2022/06/04 05:49:12;;;;;;;4.33;2.80;;;19.90;81.70;;;;;;4940695;29;20716;-93
2022/06/04 05:51:40;;;;;;;3.33;2.73;;;20.00;80.80;;;;;;4940738;29;20190;-93
2022/06/04 05:54:06;;;;;;;3.60;2.47;;;20.10;80.20;;;;;;4940427;28;20184;-92
2022/06/04 05:56:35;;;;;;;6.43;3.10;;;20.30;80.20;;;;;;4950218;28;20189;-95
2022/06/04 05:59:02;;;;;;;3.73;2.40;;;20.30;80.50;;;;;;4960003;28;20280;-93
2022/06/04 06:01:31;;;;;;;4.03;2.60;;;20.20;80.80;;;;;;4959813;28;20189;-93
2022/06/04 06:03:58;;;;;;;3.80;2.50;;;20.20;80.80;;;;;;4948773;28;20185;-95
2022/06/04 06:06:27;;;;;;;5.10;2.70;;;20.30;80.40;;;;;;4939314;29;20185;-94
2022/06/04 06:08:54;;;;;;;5.23;3.17;;;20.30;80.80;;;;;;4944513;28;20435;-93
2022/06/04 06:11:22;;;;;;;4.30;2.70;;;20.30;81.40;;;;;;4959189;28;20180;-92
2022/06/04 06:13:49;;;;;;;4.03;2.90;;;20.30;80.70;;;;;;4950569;29;20182;-93
2022/06/04 06:16:18;;;;;;;4.10;3.00;;;20.30;81.00;;;;;;4939817;29;20186;-93
2022/06/04 06:18:43;;;;;;;5.37;3.20;;;20.40;81.10;;;;;;4940041;29;20181;-95
2022/06/04 06:21:14;;;;;;;4.77;2.73;;;20.50;80.70;;;;;;4940803;29;20181;-95
2022/06/04 06:23:40;;;;;;;4.10;3.53;;;20.50;80.10;;;;;;4949706;28;20529;-93
2022/06/04 06:26:08;;;;;;;6.53;3.30;;;20.50;80.60;;;;;;4959010;28;20592;-94
2022/06/04 06:28:35;;;;;;;3.57;2.80;;;20.50;81.00;;;;;;4957702;28;20197;-93
2022/06/04 06:31:01;;;;;;;5.90;3.33;;;20.50;81.10;;;;;;4939993;29;20198;-93
2022/06/04 06:33:27;;;;;;;4.80;3.10;;;20.60;81.10;;;;;;4963655;28;20517;-95
2022/06/04 06:36:01;;;;;;;4.33;3.40;;;20.70;80.20;;;;;;4958763;28;20182;-94
2022/06/04 06:38:27;;;;;;;3.47;2.90;;;20.90;79.40;;;;;;4958510;28;20177;-94
2022/06/04 06:40:56;;;;;;;3.57;2.80;;;20.90;79.30;;;;;;4958959;28;20333;-93
2022/06/04 06:43:23;;;;;;;3.67;3.30;;;20.90;79.70;;;;;;4953798;28;20260;-95
2022/06/04 06:45:49;;;;;;;5.17;3.07;;;20.90;79.30;;;;;;4939575;28;20210;-93
2022/06/04 06:48:15;;;;;;;3.60;2.97;;;20.90;79.60;;;;;;4958431;28;20341;-95
2022/06/04 06:50:42;;;;;;;5.63;3.60;;;21.00;79.50;;;;;;4958978;28;20231;-94
2022/06/04 06:53:09;;;;;;;5.13;3.30;;;21.00;79.40;;;;;;4958907;28;20183;-94
2022/06/04 06:55:34;;;;;;;4.47;3.50;;;21.10;79.40;;;;;;4958408;28;20194;-93
2022/06/04 06:58:00;;;;;;;6.37;3.30;;;21.30;78.90;;;;;;4958767;28;20178;-94
2022/06/04 07:00:26;;;;;;;5.13;3.63;;;21.20;79.30;;;;;;4959187;28;20186;-94
2022/06/04 07:02:51;;;;;;;3.67;3.30;;;21.20;79.80;;;;;;4954983;28;20178;-93
2022/06/04 07:05:17;;;;;;;5.97;3.50;;;21.20;79.40;;;;;;4943091;29;20237;-94
2022/06/04 07:07:43;;;;;;;4.80;3.87;;;21.20;79.90;;;;;;4949332;28;20191;-95
2022/06/04 07:10:10;;;;;;;6.03;3.70;;;21.20;79.20;;;;;;4958876;28;20182;-91
2022/06/04 07:12:35;;;;;;;6.27;4.03;;;21.20;79.90;;;;;;4959501;28;20190;-91
2022/06/04 07:15:01;;;;;;;6.20;3.77;;;21.40;79.30;;;;;;4944692;28;20545;-91
2022/06/04 07:17:28;;;;;;;4.93;3.57;;;21.30;79.30;;;;;;4939258;28;20207;-91
2022/06/04 07:19:54;;;;;;;6.20;3.40;;;21.50;79.50;;;;;;4939197;29;20518;-91
2022/06/04 07:22:20;;;;;;;6.10;3.87;;;21.60;79.20;;;;;;4939403;29;20186;-91
2022/06/04 07:24:45;;;;;;;4.63;3.80;;;21.70;79.50;;;;;;4947507;28;20206;-91
2022/06/04 07:27:11;;;;;;;5.33;3.33;;;21.80;78.70;;;;;;4957783;28;20194;-91
2022/06/04 07:29:37;;;;;;;6.60;4.40;;;21.80;78.30;;;;;;4957684;28;20186;-92
2022/06/04 07:32:04;;;;;;;5.77;3.63;;;21.80;78.90;;;;;;4957542;28;20229;-92
2022/06/04 07:34:31;;;;;;;4.47;3.60;;;21.90;78.70;;;;;;4953893;28;20284;-91
2022/06/04 07:36:57;;;;;;;4.30;3.90;;;22.00;78.60;;;;;;4968828;28;20634;-90
2022/06/04 07:39:23;;;;;;;6.40;4.03;;;21.90;79.00;;;;;;4977392;28;20178;-88
2022/06/04 07:41:53;;;;;;;7.10;3.90;;;21.80;79.50;;;;;;4959914;28;20316;-90
2022/06/04 07:44:21;;;;;;;7.17;4.47;;;21.80;79.80;;;;;;4955416;28;20738;-92
2022/06/04 07:46:48;;;;;;;8.23;3.77;;;22.00;79.30;;;;;;4956833;28;20265;-91
2022/06/04 07:49:14;;;;;;;9.03;4.20;;;22.10;78.90;;;;;;4957652;28;20206;-90
2022/06/04 07:51:41;;;;;;;6.57;4.23;;;22.10;78.20;;;;;;4957533;28;20193;-92
2022/06/04 07:54:08;;;;;;;7.20;4.23;;;22.10;78.60;;;;;;4957912;28;20189;-91
2022/06/04 07:56:36;;;;;;;5.20;4.40;;;22.10;79.20;;;;;;4955306;28;20182;-91
2022/06/04 07:59:03;;;;;;;7.03;4.77;;;22.20;78.40;;;;;;4948753;28;20521;-91
2022/06/04 08:01:30;;;;;;;5.70;4.07;;;22.30;78.40;;;;;;4977197;28;20182;-91
2022/06/04 08:03:56;;;;;;;5.63;4.00;;;22.30;78.70;;;;;;4966845;28;20183;-91
2022/06/04 08:06:22;;;;;;;5.10;4.13;;;22.30;78.60;;;;;;4957590;28;20194;-91
2022/06/04 08:08:51;;;;;;;7.07;4.50;;;22.20;79.40;;;;;;4944566;28;20207;-91
2022/06/04 08:11:36;;;;;;;4.83;3.73;;;22.00;79.50;;;;;;4938318;29;20293;-91
2022/06/04 08:14:12;;;;;;;7.60;4.37;;;22.10;80.40;;;;;;4947460;28;20265;-91
2022/06/04 08:16:41;;;;;;;6.37;5.03;;;22.30;79.80;;;;;;4957557;28;20269;-91
2022/06/04 08:19:07;;;;;;;6.67;4.87;;;22.20;79.60;;;;;;4957148;28;20186;-91
2022/06/04 08:21:35;;;;;;;7.20;5.37;;;22.10;80.30;;;;;;4953068;28;20205;-91
2022/06/04 08:24:01;;;;;;;7.03;5.00;;;22.10;80.30;;;;;;4956813;28;20179;-91
2022/06/04 08:26:27;;;;;;;6.97;4.93;;;22.20;80.40;;;;;;4957568;28;20237;-91
2022/06/04 08:28:53;;;;;;;6.77;5.00;;;22.30;80.10;;;;;;4951350;28;20187;-91
2022/06/04 08:31:19;;;;;;;9.17;5.17;;;22.50;79.50;;;;;;4937804;29;20719;-91
2022/06/04 08:33:45;;;;;;;8.57;5.20;;;22.40;80.10;;;;;;4949970;28;20189;-91
2022/06/04 08:36:13;;;;;;;8.27;5.70;;;22.40;80.20;;;;;;4937897;29;20172;-91
2022/06/04 08:38:40;;;;;;;8.10;4.73;;;22.30;80.40;;;;;;4940497;28;20181;-91
2022/06/04 08:41:17;;;;;;;6.03;5.10;;;22.50;80.50;;;;;;4945655;28;20289;-91
2022/06/04 08:43:53;;;;;;;6.70;5.13;;;22.40;81.70;;;;;;4945260;28;20651;-89
2022/06/04 08:46:50;;;;;;;6.70;5.13;;;22.40;80.90;;;;;;4957084;28;20280;-91
2022/06/04 08:49:51;;;;;;;7.37;5.40;;;22.60;80.00;;;;;;4961162;28;20604;-91
2022/06/04 08:52:28;;;;;;;9.60;5.57;;;22.70;79.70;;;;;;4976271;28;20180;-91
2022/06/04 08:57:46;;;;;;;7.27;5.50;;;22.80;80.00;;;;;;4974489;28;20209;-88
2022/06/04 09:00:36;;;;;;;9.23;6.30;;;22.70;80.80;;;;;;4973156;28;20187;-89
2022/06/04 09:03:12;;;;;;;8.60;5.37;;;22.70;80.20;;;;;;4939632;28;20209;-92
2022/06/04 09:06:11;;;;;;;6.40;5.63;;;22.50;80.50;;;;;;4937909;28;20199;-91
2022/06/04 09:09:03;;;;;;;7.57;6.30;;;22.60;79.80;;;;;;4976589;28;20183;-91
2022/06/04 09:11:40;;;;;;;7.73;6.50;;;22.60;80.20;;;;;;4976926;28;20179;-91
2022/06/04 09:14:09;;;;;;;12.03;6.10;;;22.60;81.20;;;;;;4976655;28;20186;-91
2022/06/04 09:16:39;;;;;;;7.33;5.47;;;22.70;81.10;;;;;;4976825;28;20218;-91
2022/06/04 09:19:28;;;;;;;7.57;6.23;;;22.80;80.80;;;;;;4977214;28;20185;-90
2022/06/04 09:21:58;;;;;;;9.40;6.80;;;22.90;80.40;;;;;;4976649;28;20304;-90
2022/06/04 09:24:25;;;;;;;9.70;5.80;;;22.90;79.80;;;;;;4965374;28;20203;-92
2022/06/04 09:26:59;;;;;;;7.83;6.27;;;23.00;79.90;;;;;;4960738;28;20198;-91
2022/06/04 09:29:34;;;;;;;11.13;5.83;;;23.00;80.20;;;;;;4962908;28;20544;-91
2022/06/04 09:32:44;;;;;;;7.53;5.90;;;23.20;80.70;;;;;;4976272;28;20280;-91
2022/06/04 09:35:11;;;;;;;13.10;7.20;;;23.50;79.70;;;;;;4976947;28;20323;-90
2022/06/04 09:37:46;;;;;;;7.80;6.20;;;23.60;79.00;;;;;;4976898;28;20178;-91
2022/06/04 09:40:22;;;;;;;10.27;5.90;;;23.80;78.40;;;;;;4960105;28;20218;-90
2022/06/04 09:42:49;;;;;;;6.83;5.80;;;24.00;79.20;;;;;;4960372;28;20272;-91
2022/06/04 09:45:35;;;;;;;8.27;5.83;;;24.20;78.20;;;;;;4958346;28;20215;-91
2022/06/04 09:48:01;;;;;;;7.77;5.97;;;24.60;78.20;;;;;;4949261;28;20191;-91
2022/06/04 09:50:37;;;;;;;7.67;5.50;;;24.80;76.90;;;;;;4941596;29;20182;-91
2022/06/04 09:53:12;;;;;;;11.87;5.73;;;25.00;77.50;;;;;;4940809;29;20782;-92
2022/06/04 09:55:44;;;;;;;16.13;10.30;;;25.10;76.90;;;;;;4974273;28;20178;-92
2022/06/04 09:58:29;;;;;;;9.77;6.43;;;25.20;77.10;;;;;;4957449;28;20185;-89
2022/06/04 10:00:57;;;;;;;9.60;6.17;;;25.40;76.50;;;;;;4947210;28;20222;-91
2022/06/04 10:03:23;;;;;;;11.00;6.60;;;25.60;75.80;;;;;;4959374;28;20181;-91
2022/06/04 10:06:00;;;;;;;8.20;6.40;;;25.60;75.40;;;;;;4979281;28;20205;-91
2022/06/04 10:08:29;;;;;;;10.77;6.47;;;25.70;75.20;;;;;;4946151;28;20245;-90
2022/06/04 10:11:04;;;;;;;7.50;6.70;;;25.80;75.60;;;;;;4940492;29;20561;-90
2022/06/04 10:13:48;;;;;;;9.03;6.07;;;25.70;75.60;;;;;;4952305;28;20178;-89
2022/06/04 10:16:23;;;;;;;8.13;6.57;;;25.60;76.10;;;;;;4944260;28;20194;-89
2022/06/04 10:19:12;;;;;;;10.20;7.10;;;25.40;75.40;;;;;;4940433;29;20269;-90
2022/06/04 10:21:41;;;;;;;8.57;6.93;;;25.30;76.00;;;;;;4930704;29;20214;-90
2022/06/04 10:24:26;;;;;;;8.57;6.90;;;25.10;76.20;;;;;;4940284;29;20245;-90
2022/06/04 10:27:29;;;;;;;10.97;6.90;;;24.90;76.90;;;;;;4940362;29;20183;-90
2022/06/04 10:29:55;;;;;;;8.50;6.40;;;24.80;77.70;;;;;;4940205;29;20211;-90
2022/06/04 10:32:39;;;;;;;7.87;6.60;;;24.60;78.00;;;;;;4940391;29;20644;-90
2022/06/04 10:35:04;;;;;;;11.87;7.33;;;24.50;78.70;;;;;;4940365;28;20194;-90
2022/06/04 10:37:38;;;;;;;9.17;7.53;;;24.40;79.00;;;;;;4940789;29;20658;-90
2022/06/04 10:40:15;;;;;;;8.93;7.70;;;24.40;78.10;;;;;;4940094;29;20239;-90
2022/06/04 10:43:06;;;;;;;10.63;7.30;;;24.50;78.00;;;;;;4940173;29;20214;-90
2022/06/04 10:45:49;;;;;;;10.30;6.87;;;24.50;78.50;;;;;;4939900;28;20300;-90
2022/06/04 10:48:34;;;;;;;9.80;7.70;;;24.90;78.90;;;;;;4939965;29;20207;-92
2022/06/04 10:51:26;;;;;;;12.00;8.30;;;25.20;78.10;;;;;;4940104;29;20187;-90
2022/06/04 10:54:06;;;;;;;9.23;6.83;;;25.50;77.10;;;;;;4940054;28;20182;-90
2022/06/04 10:56:46;;;;;;;9.93;7.53;;;25.80;76.70;;;;;;4939892;29;20186;-90
2022/06/04 10:59:21;;;;;;;10.93;8.17;;;26.00;77.10;;;;;;4939901;29;20185;-89
2022/06/04 11:02:00;;;;;;;9.83;6.80;;;26.30;75.10;;;;;;4939858;29;20194;-90
2022/06/04 11:04:46;;;;;;;12.30;7.40;;;26.30;75.90;;;;;;4939580;29;20199;-90
2022/06/04 11:07:49;;;;;;;9.67;7.53;;;26.20;76.20;;;;;;4939710;29;20187;-91
2022/06/04 11:10:17;;;;;;;11.53;7.77;;;26.30;75.40;;;;;;4937672;29;20225;-91
2022/06/04 11:13:04;;;;;;;13.10;7.40;;;26.20;75.60;;;;;;4939571;29;20205;-92
2022/06/04 11:15:56;;;;;;;9.90;7.50;;;26.10;76.40;;;;;;4940083;29;20175;-91
2022/06/04 11:19:03;;;;;;;8.60;7.80;;;26.00;76.00;;;;;;4942021;29;20180;-91
2022/06/04 11:21:49;;;;;;;11.60;7.90;;;26.00;75.80;;;;;;4942025;29;20175;-93
2022/06/04 11:24:29;;;;;;;10.50;7.73;;;26.20;75.80;;;;;;4940932;29;20653;-93
2022/06/04 11:28:00;;;;;;;;;;;;;;;;;;;;;
2022/06/04 11:31:10;;;;;;;10.03;8.33;;;27.50;74.20;;;;;;4912253;28;20187;-94
2022/06/04 11:34:19;;;;;;;;;;;;;;;;;;;;;
2022/06/04 11:37:11;;;;;;;;;;;;;;;;;;;;;
2022/06/04 11:40:22;;;;;;;;;;;;;;;;;;;;;
2022/06/04 11:43:43;;;;;;;8.40;6.32;;;31.90;67.20;;;;;;4977735;28;20232;-92
2022/06/04 11:46:44;;;;;;;;;;;;;;;;;;;;;
2022/06/04 11:50:00;;;;;;;;;;;;;;;;;;;;;
2022/06/04 11:52:51;;;;;;;9.07;6.32;;;35.00;61.80;;;;;;4956691;28;20194;-91
2022/06/04 11:56:09;;;;;;;7.03;5.75;;;35.40;61.00;;;;;;4938857;29;20604;-92
2022/06/04 12:06:28;;;;;;;8.38;6.25;;;37.20;57.50;;;;;;4883677;29;20602;-92
2022/06/04 12:09:42;;;;;;;8.57;6.35;;;38.00;56.60;;;;;;4895786;29;20185;-92
2022/06/04 12:13:23;;;;;;;;;;;;;;;;;;;;;
2022/06/04 12:16:16;;;;;;;7.78;6.35;;;38.70;55.90;;;;;;4878097;29;20196;-91
2022/06/04 12:26:20;;;;;;;;;;;;;;;;;;;;;
2022/06/04 12:29:33;;;;;;;;;;;;;;;;;;;;;
2022/06/04 12:32:52;;;;;;;;;;;;;;;;;;;;;
2022/06/04 12:36:10;;;;;;;6.55;5.88;;;41.20;52.60;;;;;;4913619;29;20213;-92
2022/06/04 12:39:19;;;;;;;6.28;5.78;;;41.30;52.40;;;;;;4938624;29;20647;-93
2022/06/04 12:42:39;;;;;;;8.02;6.20;;;41.80;51.80;;;;;;4939165;29;20190;-92
2022/06/04 12:45:57;;;;;;;8.55;5.93;;;41.80;51.40;;;;;;4862698;29;20609;-93
2022/06/04 12:48:49;;;;;;;7.00;5.13;;;41.70;51.70;;;;;;4878672;29;20587;-96
2022/06/04 12:51:52;;;;;;;5.57;5.07;;;42.10;51.40;;;;;;4943204;29;20628;-90
2022/06/04 12:54:37;;;;;;;5.35;4.47;;;42.50;51.00;;;;;;4942079;29;20302;-91
2022/06/04 12:57:17;;;;;;;7.97;6.05;;;42.60;50.80;;;;;;4941991;29;20219;-89
2022/06/04 12:59:47;;;;;;;6.10;5.20;;;42.30;50.20;;;;;;4942203;29;20187;-90
2022/06/04 13:02:36;;;;;;;6.50;5.80;;;42.50;50.70;;;;;;4942292;29;20648;-92
2022/06/04 13:05:14;;;;;;;7.35;6.68;;;43.00;50.20;;;;;;4941958;29;20580;-92
2022/06/04 13:08:15;;;;;;;6.63;5.90;;;42.50;49.90;;;;;;4941339;29;20211;-91
2022/06/04 13:11:14;;;;;;;6.63;5.50;;;42.70;50.00;;;;;;4942284;29;20214;-92
2022/06/04 13:14:21;;;;;;;10.20;5.97;;;43.20;50.00;;;;;;4942332;28;20226;-92
2022/06/04 13:16:59;;;;;;;5.45;4.95;;;43.50;49.40;;;;;;4938955;29;20180;-92
2022/06/04 13:20:05;;;;;;;5.80;5.30;;;43.50;49.50;;;;;;4942161;29;20197;-92
2022/06/04 13:26:26;;;;;;;6.90;6.25;;;44.10;48.80;;;;;;4957307;28;20210;-92
2022/06/04 13:29:48;;;;;;;6.45;5.85;;;44.30;48.50;;;;;;4960182;28;20182;-92
2022/06/04 13:32:49;;;;;;;6.78;6.00;;;44.40;48.40;;;;;;4939185;28;20221;-92
2022/06/04 13:35:37;;;;;;;10.00;5.75;;;44.40;48.40;;;;;;4960632;28;20190;-92
2022/06/04 13:38:16;;;;;;;5.97;5.47;;;44.00;48.60;;;;;;4959213;28;20269;-92
2022/06/04 13:42:00;;;;;;;6.45;5.47;;;44.20;48.40;;;;;;4941208;28;20217;-92
2022/06/04 13:53:56;;;;;;;6.45;5.82;;;44.20;48.20;;;;;;4964826;28;20647;-92
2022/06/04 13:57:01;;;;;;;5.75;4.57;;;44.80;47.70;;;;;;4950757;28;20190;-94
2022/06/04 13:59:48;;;;;;;6.55;5.03;;;44.20;48.10;;;;;;4945501;28;20191;-92
2022/06/04 14:02:48;;;;;;;;;;;;;;;;;;;;;
2022/06/04 14:05:54;;;;;;;;;;;;;;;;;;;;;
2022/06/04 14:16:10;;;;;;;5.10;4.60;;;45.20;47.60;;;;;;4898597;29;20658;-92
2022/06/04 14:26:13;;;;;;;4.65;4.30;;;45.20;47.20;;;;;;4940687;29;20221;-92
2022/06/04 14:29:46;;;;;;;4.63;4.22;;;45.60;47.00;;;;;;4940686;29;20656;-94
2022/06/04 14:43:19;;;;;;;6.45;5.32;;;45.20;46.90;;;;;;4824478;29;20194;-92
2022/06/04 15:00:20;;;;;;;;;;;;;;;;;;;;;
2022/06/04 15:18:42;;;;;;;;;;;;;;;;;;;;;
2022/06/04 17:21:03;;;;;;;;;;;;;;;;;;;;;
2022/06/04 17:24:08;;;;;;;4.55;3.33;;;38.60;50.40;;;;;;4877719;29;20534;-94
2022/06/04 18:55:58;;;;;;;4.00;2.88;;;32.80;57.40;;;;;;5014908;28;20227;-85